Terminal Aerodrome Forecast
Issued by NWS Sterling, VA

Home | Current Version | Previous Version | Text Only | Print | Product List | Glossary On
Versions: 1 2 3 4 5 6 7 8 9 10 11 12 13 14 15 16 17 18 19
000
FTUS41 KLWX 020400 AAA
TAFCHO
TAF AMD
KCHO 020418Z 0204/0224 00000KT 5SM -RA OVC020
     FM020600 00000KT 1SM BR SCT010 BKN030
     FM021000 00000KT 1SM BR SCT010 BKN020
     FM021400 00000KT 5SM BR FEW010 SCT250
     FM021500 00000KT P6SM SCT250
     FM021800 VRB03KT P6SM SCT045
     FM022100 12004KT P6SM SCT250=

USA.gov is the U.S. government's official web portal to all federal, state and local government web resources and services.